Gainsborough, Canada
Current Conditions -  °F | °C
As of 3:58 AM on Saturday 22 Nov 2014 (Local Time) from KMIB Reporting Station
Clear Clear  
Wind Chill: 27°   Ceiling: Unl
Heat Index: 27°   Visibility: 10mi
Dew Point: 26°   Wind: 2mph
Humidity: 96%   Direction: 270°W
Pressure: 29.57"   Gusts: NA
Location:  49.17°N, 101.45°W
Report Text: KMIB 220958Z AUTO 27002KT 10SM CLR M03/M03 A2957 RMK AO2 SLP033 T10261032
Loading
Personal Weather Stations






























Interactive Weather Map New forecast layout! Learn more

10-Day Weather Forecast

Advertisements
Track Severe Weather on mobile